createdAt,value
2023-02-02T00:01:42.077Z,4.19
2023-02-02T00:04:16.932Z,4.35
2023-02-02T00:06:46.494Z,4.56
2023-02-02T00:09:15.814Z,4.07
2023-02-02T00:11:43.624Z,4.29
2023-02-02T00:14:12.212Z,4.48
2023-02-02T00:16:43.217Z,4.34
2023-02-02T00:19:13.057Z,4.82
2023-02-02T00:21:40.915Z,4.38
2023-02-02T00:24:11.678Z,4.33
2023-02-02T00:26:41.775Z,4.49
2023-02-02T00:29:16.112Z,4.52
2023-02-02T00:31:43.836Z,4.45
2023-02-02T00:34:13.386Z,4.47
2023-02-02T00:36:41.915Z,5.06
2023-02-02T00:39:14.375Z,4.97
2023-02-02T00:41:41.436Z,4.82
2023-02-02T00:44:09.035Z,4.96
2023-02-02T00:46:39.839Z,5.04
2023-02-02T00:49:07.929Z,4.82
2023-02-02T00:51:35.476Z,4.87
2023-02-02T00:54:03.877Z,4.96
2023-02-02T00:56:32.596Z,4.89
2023-02-02T00:58:59.854Z,4.70
2023-02-02T01:01:27.748Z,4.63
2023-02-02T01:03:55.027Z,4.52
2023-02-02T01:06:22.155Z,4.46
2023-02-02T01:08:49.315Z,4.51
2023-02-02T01:11:16.694Z,4.65
2023-02-02T01:13:45.285Z,4.50
2023-02-02T01:16:13.116Z,4.29
2023-02-02T01:18:40.293Z,4.29
2023-02-02T01:21:09.635Z,4.36
2023-02-02T01:23:38.704Z,4.20
2023-02-02T01:26:08.803Z,4.42
2023-02-02T01:28:37.207Z,4.35
2023-02-02T01:31:09.735Z,4.23
2023-02-02T01:33:37.066Z,5.03
2023-02-02T01:36:07.908Z,4.76
2023-02-02T01:38:35.906Z,4.88
2023-02-02T01:41:03.903Z,4.94
2023-02-02T01:43:51.868Z,4.88
2023-02-02T01:46:22.696Z,4.72
2023-02-02T01:48:56.109Z,4.59
2023-02-02T01:51:28.223Z,4.97
2023-02-02T01:53:59.800Z,4.82
2023-02-02T01:56:32.928Z,4.46
2023-02-02T01:59:02.371Z,4.15
2023-02-02T02:01:31.285Z,3.92
2023-02-02T02:03:59.151Z,4.26
2023-02-02T02:06:27.666Z,4.10
2023-02-02T02:08:59.960Z,3.91
2023-02-02T02:11:27.987Z,3.68
2023-02-02T02:13:58.583Z,3.79
2023-02-02T02:16:43.195Z,3.78
2023-02-02T02:19:49.995Z,3.95
2023-02-02T02:22:21.641Z,4.02
2023-02-02T02:25:32.255Z,3.88
2023-02-02T02:28:51.804Z,4.21
2023-02-02T02:31:54.735Z,3.99
2023-02-02T02:34:38.038Z,4.61
2023-02-02T02:37:12.161Z,4.57
2023-02-02T02:39:46.059Z,4.21
2023-02-02T02:42:20.401Z,4.03
2023-02-02T02:44:50.578Z,4.61
2023-02-02T02:47:19.662Z,5.21
2023-02-02T02:49:49.623Z,4.56
2023-02-02T02:52:16.792Z,4.85
2023-02-02T02:54:49.891Z,4.66
2023-02-02T02:57:44.986Z,4.88
2023-02-02T03:00:32.804Z,5.20
2023-02-02T03:03:14.884Z,5.66
2023-02-02T03:05:55.242Z,5.17
2023-02-02T03:08:32.929Z,4.71
2023-02-02T03:11:03.365Z,4.86
2023-02-02T03:13:32.322Z,5.12
2023-02-02T03:16:00.266Z,5.21
2023-02-02T03:18:30.722Z,4.58
2023-02-02T03:20:59.909Z,5.01
2023-02-02T03:23:28.112Z,4.92
2023-02-02T03:25:56.356Z,4.78
2023-02-02T03:28:25.334Z,5.32
2023-02-02T03:30:55.286Z,5.03
2023-02-02T03:33:23.568Z,5.08
2023-02-02T03:35:50.912Z,4.89
2023-02-02T03:38:19.747Z,5.03
2023-02-02T03:40:47.105Z,6.02
2023-02-02T03:43:19.663Z,6.35
2023-02-02T03:45:46.783Z,5.85
2023-02-02T03:48:13.946Z,5.69
2023-02-02T03:50:41.083Z,5.51
2023-02-02T03:53:08.309Z,5.85
2023-02-02T03:55:36.923Z,5.60
2023-02-02T03:58:03.983Z,5.75
2023-02-02T04:00:31.203Z,5.92
2023-02-02T04:02:58.315Z,5.86
2023-02-02T04:05:25.908Z,6.19
2023-02-02T04:07:53.144Z,6.16
2023-02-02T04:10:21.052Z,6.20
2023-02-02T04:12:49.705Z,6.22
2023-02-02T04:15:16.942Z,6.27
2023-02-02T04:17:44.064Z,5.69
2023-02-02T04:20:12.346Z,6.12
2023-02-02T04:22:39.545Z,5.61
2023-02-02T04:25:07.923Z,5.68
2023-02-02T04:27:35.066Z,5.70
2023-02-02T04:30:04.303Z,5.30
2023-02-02T04:32:31.386Z,5.54
2023-02-02T04:34:58.609Z,5.48
2023-02-02T04:37:25.788Z,5.55
2023-02-02T04:39:52.944Z,5.33
2023-02-02T04:42:20.106Z,5.50
2023-02-02T04:44:47.306Z,5.44
2023-02-02T04:47:15.763Z,5.48
2023-02-02T04:49:42.963Z,5.81
2023-02-02T04:52:11.372Z,5.85
2023-02-02T04:54:38.584Z,5.65
2023-02-02T04:57:05.809Z,5.67
2023-02-02T04:59:32.942Z,5.54
2023-02-02T05:02:00.643Z,5.60
2023-02-02T05:04:29.728Z,5.74
2023-02-02T05:06:56.984Z,5.70
2023-02-02T05:09:24.285Z,5.47
2023-02-02T05:11:51.345Z,5.64
2023-02-02T05:14:18.526Z,5.53
2023-02-02T05:16:46.235Z,5.64
2023-02-02T05:19:13.668Z,5.54
2023-02-02T05:21:42.307Z,6.03
2023-02-02T05:24:09.968Z,5.66
2023-02-02T05:26:37.251Z,5.33
2023-02-02T05:29:04.588Z,5.90
2023-02-02T05:31:31.743Z,5.67
2023-02-02T05:33:59.307Z,5.67
2023-02-02T05:36:26.469Z,5.57
2023-02-02T05:38:55.194Z,5.53
2023-02-02T05:41:22.387Z,5.95
2023-02-02T05:43:49.608Z,5.98
2023-02-02T05:46:16.952Z,5.48
2023-02-02T05:48:44.209Z,5.94
2023-02-02T05:51:18.952Z,5.80
2023-02-02T05:53:46.418Z,5.86
2023-02-02T05:56:15.448Z,5.93
2023-02-02T05:58:42.650Z,6.18
2023-02-02T06:01:09.887Z,5.85
2023-02-02T06:03:37.231Z,6.26
2023-02-02T06:06:07.011Z,6.19
2023-02-02T06:08:34.992Z,5.88
2023-02-02T06:11:09.515Z,6.23
2023-02-02T06:13:38.231Z,6.51
2023-02-02T06:16:06.611Z,5.90
2023-02-02T06:18:34.495Z,6.33
2023-02-02T06:21:04.017Z,6.32
2023-02-02T06:23:31.229Z,7.09
2023-02-02T06:25:59.471Z,6.80
2023-02-02T06:28:26.696Z,6.85
2023-02-02T06:30:55.335Z,6.07
2023-02-02T06:33:22.475Z,5.96
2023-02-02T06:35:49.593Z,6.23
2023-02-02T06:38:16.690Z,6.21
2023-02-02T06:40:43.749Z,6.63
2023-02-02T06:43:10.870Z,6.50
2023-02-02T06:45:38.008Z,5.80
2023-02-02T06:48:06.728Z,6.16
2023-02-02T06:50:33.911Z,5.82
2023-02-02T06:53:01.172Z,5.96
2023-02-02T06:55:28.328Z,5.74
2023-02-02T06:57:57.388Z,6.14
2023-02-02T07:00:25.191Z,6.41
2023-02-02T07:02:52.413Z,5.53
2023-02-02T07:05:21.125Z,5.27
2023-02-02T07:07:48.369Z,5.33
2023-02-02T07:11:13.315Z,5.47
2023-02-02T07:13:03.430Z,4.19
2023-02-02T07:15:30.589Z,4.02
2023-02-02T07:17:57.648Z,4.50
2023-02-02T07:20:26.376Z,4.36
2023-02-02T07:22:53.852Z,4.73
2023-02-02T07:25:20.947Z,5.25
2023-02-02T07:27:48.311Z,5.29
2023-02-02T07:30:16.054Z,5.28
2023-02-02T07:32:47.652Z,6.09
2023-02-02T07:35:14.928Z,6.13
2023-02-02T07:37:44.243Z,5.75
2023-02-02T07:40:12.551Z,5.07
2023-02-02T07:42:39.787Z,5.01
2023-02-02T07:45:36.510Z,5.33
2023-02-02T07:47:58.727Z,6.34
2023-02-02T07:50:27.334Z,5.35
2023-02-02T07:52:56.626Z,5.74
2023-02-02T07:55:23.957Z,6.35
2023-02-02T07:57:52.571Z,6.21
2023-02-02T08:00:21.070Z,5.99
2023-02-02T08:02:49.619Z,6.34
2023-02-02T08:05:17.154Z,6.47
2023-02-02T08:07:44.325Z,6.46
2023-02-02T08:10:13.114Z,5.29
2023-02-02T08:12:40.509Z,4.75
2023-02-02T08:15:09.370Z,5.06
2023-02-02T08:17:36.626Z,4.81
2023-02-02T08:20:04.432Z,4.87
2023-02-02T08:22:31.687Z,4.94
2023-02-02T08:24:59.149Z,4.36
2023-02-02T08:27:27.909Z,5.74
2023-02-02T08:29:55.070Z,5.06
2023-02-02T08:32:22.389Z,5.39
2023-02-02T08:34:49.607Z,5.72
2023-02-02T08:37:16.753Z,6.21
2023-02-02T08:39:44.098Z,5.91
2023-02-02T08:42:11.380Z,6.50
2023-02-02T08:45:59.583Z,6.30
2023-02-02T08:47:30.118Z,6.44
2023-02-02T08:49:57.386Z,6.12
2023-02-02T08:52:25.853Z,6.64
2023-02-02T08:54:53.123Z,6.69
2023-02-02T08:57:20.264Z,6.60
2023-02-02T08:59:48.859Z,8.00
2023-02-02T09:02:16.272Z,7.00
2023-02-02T09:04:43.560Z,6.97
2023-02-02T09:07:10.681Z,6.91
2023-02-02T09:09:37.976Z,7.30
2023-02-02T09:12:05.421Z,7.81
2023-02-02T09:14:32.645Z,7.55
2023-02-02T09:17:01.411Z,7.46
2023-02-02T09:19:28.719Z,7.65
2023-02-02T09:21:56.062Z,7.29
2023-02-02T09:24:23.346Z,7.49
2023-02-02T09:26:50.645Z,7.03
2023-02-02T09:29:18.583Z,6.36
2023-02-02T09:31:45.940Z,6.89
2023-02-02T09:34:16.159Z,6.49
2023-02-02T09:36:45.324Z,6.67
2023-02-02T09:39:13.889Z,7.54
2023-02-02T09:42:22.399Z,8.27
2023-02-02T09:44:59.604Z,7.72
2023-02-02T09:47:47.386Z,8.33
2023-02-02T09:50:25.816Z,9.05
2023-02-02T09:53:02.222Z,14.88
2023-02-02T09:55:35.679Z,17.90
2023-02-02T09:58:13.645Z,12.79
2023-02-02T10:00:48.703Z,8.58
2023-02-02T10:03:21.176Z,8.36
2023-02-02T10:05:58.034Z,8.38
2023-02-02T10:08:35.408Z,8.63
2023-02-02T10:11:19.958Z,8.46
2023-02-02T10:13:50.983Z,8.11
2023-02-02T10:16:22.375Z,7.07
2023-02-02T10:18:58.242Z,8.41
2023-02-02T10:21:38.163Z,6.07
2023-02-02T10:24:05.818Z,7.00
2023-02-02T10:26:39.437Z,5.89
2023-02-02T10:29:15.798Z,6.17
2023-02-02T10:31:55.240Z,5.66
2023-02-02T10:34:28.557Z,4.55
2023-02-02T10:37:26.666Z,4.62
2023-02-02T10:40:11.882Z,5.06
2023-02-02T10:42:55.621Z,5.39
2023-02-02T10:45:25.038Z,5.77
2023-02-02T10:47:52.754Z,7.21
2023-02-02T10:50:22.179Z,8.74
2023-02-02T10:52:56.908Z,6.21
2023-02-02T10:55:37.609Z,7.30
2023-02-02T10:58:20.598Z,9.82
2023-02-02T11:00:52.271Z,7.80
2023-02-02T11:03:23.183Z,7.39
2023-02-02T11:05:50.883Z,6.86
2023-02-02T11:08:25.358Z,7.78
2023-02-02T11:10:57.223Z,6.10
2023-02-02T11:13:31.097Z,6.53
2023-02-02T11:16:38.871Z,6.69
2023-02-02T11:19:24.035Z,6.76
2023-02-02T11:21:54.429Z,5.88
2023-02-02T11:24:28.093Z,5.85
2023-02-02T11:27:00.335Z,4.38
2023-02-02T11:29:31.697Z,4.01
2023-02-02T11:32:17.708Z,3.77
2023-02-02T11:34:45.202Z,4.22
2023-02-02T11:37:16.119Z,3.91
2023-02-02T11:39:44.907Z,4.04
2023-02-02T11:42:17.621Z,3.85
2023-02-02T11:44:49.247Z,4.41
2023-02-02T11:47:22.273Z,3.88
2023-02-02T11:49:51.699Z,3.60
2023-02-02T11:52:24.108Z,4.12
2023-02-02T11:54:57.141Z,4.03
2023-02-02T11:57:28.492Z,3.32
2023-02-02T12:00:18.083Z,3.89
2023-02-02T12:02:47.791Z,4.06
2023-02-02T12:05:36.134Z,4.35
2023-02-02T12:08:03.328Z,4.64
2023-02-02T12:10:42.188Z,4.46
2023-02-02T12:13:24.202Z,4.58
2023-02-02T12:16:07.720Z,5.07
2023-02-02T12:18:50.708Z,5.06
2023-02-02T12:21:29.061Z,5.68
2023-02-02T12:24:20.563Z,4.94
2023-02-02T12:27:02.069Z,4.35
2023-02-02T12:29:51.663Z,4.46
2023-02-02T12:32:39.943Z,4.29
2023-02-02T12:35:32.720Z,4.20
2023-02-02T12:38:16.511Z,4.35
2023-02-02T12:41:19.824Z,4.73
2023-02-02T12:43:58.682Z,5.38
2023-02-02T12:46:45.350Z,3.93
2023-02-02T12:49:38.388Z,3.89
2023-02-02T12:52:24.264Z,3.58
2023-02-02T12:55:21.990Z,3.42
2023-02-02T12:58:07.480Z,3.57
2023-02-02T13:01:02.579Z,3.43
2023-02-02T13:03:51.391Z,3.16
2023-02-02T13:06:49.162Z,3.58
2023-02-02T13:09:28.771Z,3.42
2023-02-02T13:12:05.442Z,2.84
2023-02-02T13:14:41.097Z,2.65
2023-02-02T13:17:17.551Z,2.94
2023-02-02T13:19:53.923Z,3.08
2023-02-02T13:22:31.150Z,3.28
2023-02-02T13:25:05.697Z,2.94
2023-02-02T13:27:34.209Z,2.77
2023-02-02T13:30:11.685Z,3.19
2023-02-02T13:32:45.259Z,2.78
2023-02-02T13:35:19.074Z,2.78
2023-02-02T13:37:53.972Z,2.70
2023-02-02T13:40:30.452Z,2.77
2023-02-02T13:43:12.895Z,2.65
2023-02-02T13:45:52.816Z,2.70
2023-02-02T13:48:33.291Z,2.63
2023-02-02T13:51:33.019Z,2.81
2023-02-02T13:54:38.637Z,3.46
2023-02-02T13:57:26.671Z,3.86
2023-02-02T14:00:03.378Z,3.05
2023-02-02T14:02:40.173Z,3.20
2023-02-02T14:05:24.275Z,2.47
2023-02-02T14:08:00.190Z,2.88
2023-02-02T14:10:32.405Z,2.70
2023-02-02T14:13:10.456Z,3.17
2023-02-02T14:15:40.983Z,3.31
2023-02-02T14:18:08.591Z,2.89
2023-02-02T14:20:57.530Z,2.75
2023-02-02T14:23:53.113Z,1.59
2023-02-02T14:26:41.774Z,1.45
2023-02-02T14:29:36.536Z,1.05
2023-02-02T14:32:30.906Z,1.15
2023-02-02T14:35:00.189Z,1.28
2023-02-02T14:37:49.102Z,1.52
2023-02-02T14:40:34.705Z,1.35
2023-02-02T14:43:19.749Z,1.50
2023-02-02T14:45:48.735Z,1.47
2023-02-02T14:48:19.447Z,1.41
2023-02-02T14:50:52.391Z,1.47
2023-02-02T14:53:28.927Z,1.39
2023-02-02T14:56:01.223Z,1.28
2023-02-02T14:58:33.427Z,1.62
2023-02-02T15:01:10.909Z,1.69
2023-02-02T15:03:50.927Z,1.82
2023-02-02T15:06:32.927Z,1.44
2023-02-02T15:09:35.701Z,1.64
2023-02-02T15:12:27.754Z,1.59
2023-02-02T15:15:19.101Z,2.82
2023-02-02T15:18:01.284Z,1.41
2023-02-02T15:20:33.413Z,1.34
2023-02-02T15:23:05.738Z,1.70
2023-02-02T15:25:40.861Z,1.53
2023-02-02T15:28:21.794Z,1.49
2023-02-02T15:30:58.640Z,1.62
2023-02-02T15:33:31.755Z,1.45
2023-02-02T15:36:05.059Z,1.52
2023-02-02T15:38:38.023Z,1.29
2023-02-02T15:41:18.128Z,1.41
2023-02-02T15:43:46.259Z,1.73
2023-02-02T15:46:17.991Z,1.44
2023-02-02T15:48:45.176Z,1.15
2023-02-02T15:51:17.438Z,1.15
2023-02-02T15:53:50.157Z,1.15
2023-02-02T15:56:29.457Z,1.07
2023-02-02T15:58:58.780Z,1.23
2023-02-02T16:01:30.249Z,1.16
2023-02-02T16:04:16.493Z,1.15
2023-02-02T16:06:45.162Z,1.36
2023-02-02T16:09:24.913Z,1.50
2023-02-02T16:11:54.321Z,1.59
2023-02-02T16:14:22.523Z,1.70
2023-02-02T16:16:50.178Z,1.70
2023-02-02T16:19:21.500Z,1.52
2023-02-02T16:21:53.665Z,1.85
2023-02-02T16:24:25.827Z,1.67
2023-02-02T16:26:59.276Z,1.45
2023-02-02T16:29:27.821Z,1.84
2023-02-02T16:31:57.322Z,1.78
2023-02-02T16:34:46.597Z,1.58
2023-02-02T16:37:16.378Z,1.62
2023-02-02T16:39:43.660Z,2.23
2023-02-02T16:42:25.309Z,1.89
2023-02-02T16:44:53.277Z,2.24
2023-02-02T16:47:37.482Z,2.41
2023-02-02T16:50:31.537Z,2.42
2023-02-02T16:53:03.040Z,2.53
2023-02-02T16:55:49.193Z,2.12
2023-02-02T16:58:22.756Z,2.57
2023-02-02T17:01:14.949Z,2.55
2023-02-02T17:03:51.523Z,1.92
2023-02-02T17:06:35.776Z,2.36
2023-02-02T17:09:38.864Z,2.24
2023-02-02T17:12:33.677Z,2.61
2023-02-02T17:15:36.004Z,2.97
2023-02-02T17:18:05.367Z,2.83
2023-02-02T17:20:33.642Z,3.27
2023-02-02T17:23:04.231Z,3.45
2023-02-02T17:25:37.026Z,2.90
2023-02-02T17:28:10.072Z,2.65
2023-02-02T17:30:41.123Z,2.95
2023-02-02T17:33:12.179Z,3.25
2023-02-02T17:35:53.779Z,3.51
2023-02-02T17:38:24.329Z,3.76
2023-02-02T17:40:52.976Z,3.49
2023-02-02T17:43:20.911Z,3.37
2023-02-02T17:45:50.925Z,3.50
2023-02-02T17:48:18.118Z,3.14
2023-02-02T17:50:45.640Z,3.48
2023-02-02T17:53:15.721Z,3.55
2023-02-02T17:55:44.799Z,4.22
2023-02-02T17:58:13.840Z,4.43
2023-02-02T18:00:42.598Z,3.90
2023-02-02T18:03:17.172Z,3.83
2023-02-02T18:05:44.459Z,4.21
2023-02-02T18:08:13.106Z,4.40
2023-02-02T18:10:41.229Z,4.51
2023-02-02T18:13:13.386Z,4.42
2023-02-02T18:15:40.524Z,4.40
2023-02-02T18:18:08.099Z,4.23
2023-02-02T18:20:36.739Z,4.60
2023-02-02T18:23:04.078Z,4.57
2023-02-02T18:25:31.378Z,4.49
2023-02-02T18:27:58.419Z,4.39
2023-02-02T18:30:25.821Z,4.93
2023-02-02T18:32:53.213Z,5.02
2023-02-02T18:35:20.711Z,5.15
2023-02-02T18:37:49.541Z,5.41
2023-02-02T18:40:17.136Z,5.74
2023-02-02T18:42:44.422Z,5.87
2023-02-02T18:45:11.907Z,6.08
2023-02-02T18:47:41.680Z,6.43
2023-02-02T18:50:10.532Z,6.84
2023-02-02T18:52:37.659Z,8.05
2023-02-02T18:55:09.444Z,8.91
2023-02-02T18:57:36.503Z,7.97
2023-02-02T19:00:05.482Z,6.80
2023-02-02T19:02:32.576Z,6.17
2023-02-02T19:04:59.741Z,5.88
2023-02-02T19:07:29.226Z,5.71
2023-02-02T19:09:56.642Z,5.96
2023-02-02T19:12:26.083Z,5.96
2023-02-02T19:14:53.186Z,5.43
2023-02-02T19:17:24.081Z,3.99
2023-02-02T19:19:53.561Z,3.51
2023-02-02T19:22:25.764Z,3.96
2023-02-02T19:24:54.718Z,4.24
2023-02-02T19:27:26.963Z,3.97
2023-02-02T19:30:03.428Z,4.50
2023-02-02T19:32:35.773Z,3.99
2023-02-02T19:35:07.830Z,3.85
2023-02-02T19:37:40.181Z,3.67
2023-02-02T19:40:20.386Z,3.91
2023-02-02T19:42:59.069Z,4.08
2023-02-02T19:45:32.109Z,3.99
2023-02-02T19:48:15.156Z,3.63
2023-02-02T19:50:47.439Z,3.74
2023-02-02T19:53:21.420Z,3.35
2023-02-02T19:55:56.554Z,3.05
2023-02-02T19:58:35.553Z,3.37
2023-02-02T20:01:23.460Z,2.95
2023-02-02T20:03:50.991Z,2.97
2023-02-02T20:06:26.473Z,2.89
2023-02-02T20:09:02.500Z,3.02
2023-02-02T20:11:36.164Z,3.49
2023-02-02T20:14:27.706Z,2.51
2023-02-02T20:17:00.684Z,2.95
2023-02-02T20:19:41.830Z,3.03
2023-02-02T20:22:25.464Z,2.49
2023-02-02T20:24:55.247Z,2.87
2023-02-02T20:27:29.749Z,3.01
2023-02-02T20:30:21.291Z,3.46
2023-02-02T20:32:54.523Z,3.51
2023-02-02T20:35:40.922Z,3.07
2023-02-02T20:38:24.581Z,2.58
2023-02-02T20:40:52.977Z,3.17
2023-02-02T20:43:23.220Z,3.27
2023-02-02T20:45:53.026Z,3.23
2023-02-02T20:48:23.233Z,3.16
2023-02-02T20:50:55.499Z,3.37
2023-02-02T20:53:27.584Z,3.10
2023-02-02T20:55:58.320Z,3.11
2023-02-02T20:58:27.060Z,3.28
2023-02-02T21:00:58.455Z,2.89
2023-02-02T21:03:29.600Z,3.30
2023-02-02T21:05:56.926Z,3.21
2023-02-02T21:08:27.340Z,2.43
2023-02-02T21:10:58.079Z,2.64
2023-02-02T21:13:39.397Z,3.13
2023-02-02T21:16:11.406Z,3.38
2023-02-02T21:18:42.812Z,3.10
2023-02-02T21:21:14.492Z,3.68
2023-02-02T21:23:43.022Z,3.50
2023-02-02T21:26:13.760Z,3.68
2023-02-02T21:28:44.422Z,3.64
2023-02-02T21:31:16.422Z,3.55
2023-02-02T21:33:46.619Z,3.49
2023-02-02T21:36:29.951Z,3.18
2023-02-02T21:39:15.739Z,3.63
2023-02-02T21:41:44.138Z,3.66
2023-02-02T21:44:16.235Z,3.55
2023-02-02T21:46:47.336Z,4.08
2023-02-02T21:49:24.575Z,3.94
2023-02-02T21:51:54.731Z,3.79
2023-02-02T21:54:25.512Z,3.53
2023-02-02T21:56:54.511Z,3.18
2023-02-02T21:59:24.206Z,3.50
2023-02-02T22:01:52.921Z,3.21
2023-02-02T22:04:24.453Z,3.35
2023-02-02T22:06:54.172Z,3.91
2023-02-02T22:09:24.356Z,3.98
2023-02-02T22:11:57.471Z,4.12
2023-02-02T22:14:36.191Z,4.28
2023-02-02T22:17:20.954Z,4.30
2023-02-02T22:19:50.206Z,4.35
2023-02-02T22:22:20.852Z,3.96
2023-02-02T22:25:00.318Z,4.09
2023-02-02T22:27:40.922Z,4.09
2023-02-02T22:30:23.282Z,3.90
2023-02-02T22:32:52.138Z,4.43
2023-02-02T22:35:19.700Z,4.36
2023-02-02T22:37:47.361Z,3.95
2023-02-02T22:40:14.925Z,3.81
2023-02-02T22:42:42.280Z,3.93
2023-02-02T22:45:10.451Z,3.60
2023-02-02T22:47:37.921Z,4.11
2023-02-02T22:50:08.098Z,3.83
2023-02-02T22:52:36.099Z,3.98
2023-02-02T22:55:03.406Z,3.96
2023-02-02T22:57:30.660Z,3.97
2023-02-02T22:59:57.901Z,4.17
2023-02-02T23:02:25.388Z,3.82
2023-02-02T23:04:52.717Z,3.90
2023-02-02T23:07:21.440Z,3.53
2023-02-02T23:09:48.830Z,3.93
2023-02-02T23:12:16.141Z,3.67
2023-02-02T23:14:43.323Z,3.51
2023-02-02T23:17:10.463Z,4.06
2023-02-02T23:19:37.887Z,3.87
2023-02-02T23:22:05.083Z,4.43
2023-02-02T23:24:33.722Z,4.06
2023-02-02T23:27:01.022Z,3.96
2023-02-02T23:29:28.622Z,4.49
2023-02-02T23:31:55.888Z,4.49
2023-02-02T23:34:23.078Z,4.32
2023-02-02T23:36:50.679Z,3.94
2023-02-02T23:39:18.001Z,3.91
2023-02-02T23:41:46.680Z,4.03
2023-02-02T23:44:14.076Z,4.13
2023-02-02T23:46:42.678Z,4.00
2023-02-02T23:49:10.149Z,3.84
2023-02-02T23:51:37.423Z,4.38
2023-02-02T23:54:05.363Z,4.21
2023-02-02T23:56:33.162Z,4.02
2023-02-02T23:59:01.741Z,3.70
